sensor_id;sensor_type;location;lat;lon;timestamp;P1;durP1;ratioP1;P2;durP2;ratioP2
18449;SDS011;9354;50.194;7.690;2023-05-07T00:00:25;5.93;;;3.10;;
18449;SDS011;9354;50.194;7.690;2023-05-07T00:02:52;5.83;;;3.40;;
18449;SDS011;9354;50.194;7.690;2023-05-07T00:05:19;4.03;;;2.80;;
18449;SDS011;9354;50.194;7.690;2023-05-07T00:07:48;5.43;;;3.20;;
18449;SDS011;9354;50.194;7.690;2023-05-07T00:10:15;12.43;;;3.87;;
18449;SDS011;9354;50.194;7.690;2023-05-07T00:12:43;5.23;;;3.13;;
18449;SDS011;9354;50.194;7.690;2023-05-07T00:15:10;5.70;;;3.30;;
18449;SDS011;9354;50.194;7.690;2023-05-07T00:17:38;6.57;;;2.70;;
18449;SDS011;9354;50.194;7.690;2023-05-07T00:20:06;4.40;;;3.07;;
18449;SDS011;9354;50.194;7.690;2023-05-07T00:22:34;7.33;;;3.70;;
18449;SDS011;9354;50.194;7.690;2023-05-07T00:25:03;7.93;;;3.30;;
18449;SDS011;9354;50.194;7.690;2023-05-07T00:27:31;4.83;;;3.70;;
18449;SDS011;9354;50.194;7.690;2023-05-07T00:29:58;3.43;;;2.90;;
18449;SDS011;9354;50.194;7.690;2023-05-07T00:32:26;4.20;;;2.70;;
18449;SDS011;9354;50.194;7.690;2023-05-07T00:34:53;5.43;;;2.87;;
18449;SDS011;9354;50.194;7.690;2023-05-07T00:37:21;6.00;;;3.10;;
18449;SDS011;9354;50.194;7.690;2023-05-07T00:39:48;6.10;;;2.90;;
18449;SDS011;9354;50.194;7.690;2023-05-07T00:42:17;5.60;;;3.07;;
18449;SDS011;9354;50.194;7.690;2023-05-07T00:44:44;3.73;;;2.77;;
18449;SDS011;9354;50.194;7.690;2023-05-07T00:47:11;4.27;;;2.60;;
18449;SDS011;9354;50.194;7.690;2023-05-07T00:49:41;3.23;;;2.47;;
18449;SDS011;9354;50.194;7.690;2023-05-07T00:52:09;3.40;;;2.50;;
18449;SDS011;9354;50.194;7.690;2023-05-07T00:54:40;12.13;;;2.63;;
18449;SDS011;9354;50.194;7.690;2023-05-07T00:57:08;5.43;;;2.37;;
18449;SDS011;9354;50.194;7.690;2023-05-07T00:59:38;4.00;;;2.63;;
18449;SDS011;9354;50.194;7.690;2023-05-07T01:02:06;3.93;;;2.50;;
18449;SDS011;9354;50.194;7.690;2023-05-07T01:04:34;3.30;;;2.43;;
18449;SDS011;9354;50.194;7.690;2023-05-07T01:07:02;5.93;;;2.33;;
18449;SDS011;9354;50.194;7.690;2023-05-07T01:09:30;4.93;;;2.30;;
18449;SDS011;9354;50.194;7.690;2023-05-07T01:11:58;4.27;;;2.87;;
18449;SDS011;9354;50.194;7.690;2023-05-07T01:14:26;6.80;;;2.90;;
18449;SDS011;9354;50.194;7.690;2023-05-07T01:16:56;3.97;;;2.63;;
18449;SDS011;9354;50.194;7.690;2023-05-07T01:19:24;6.00;;;2.50;;
18449;SDS011;9354;50.194;7.690;2023-05-07T01:21:52;5.67;;;2.90;;
18449;SDS011;9354;50.194;7.690;2023-05-07T01:24:29;3.23;;;2.50;;
18449;SDS011;9354;50.194;7.690;2023-05-07T01:26:58;5.93;;;3.00;;
18449;SDS011;9354;50.194;7.690;2023-05-07T01:29:27;4.47;;;2.90;;
18449;SDS011;9354;50.194;7.690;2023-05-07T01:31:55;8.67;;;3.10;;
18449;SDS011;9354;50.194;7.690;2023-05-07T01:34:25;4.30;;;2.90;;
18449;SDS011;9354;50.194;7.690;2023-05-07T01:36:54;6.50;;;2.97;;
18449;SDS011;9354;50.194;7.690;2023-05-07T01:39:24;4.87;;;2.77;;
18449;SDS011;9354;50.194;7.690;2023-05-07T01:41:54;5.47;;;2.90;;
18449;SDS011;9354;50.194;7.690;2023-05-07T01:44:22;4.87;;;2.90;;
18449;SDS011;9354;50.194;7.690;2023-05-07T01:46:50;5.20;;;2.60;;
18449;SDS011;9354;50.194;7.690;2023-05-07T01:49:17;4.33;;;2.50;;
18449;SDS011;9354;50.194;7.690;2023-05-07T01:51:45;4.30;;;2.67;;
18449;SDS011;9354;50.194;7.690;2023-05-07T01:54:12;5.13;;;3.07;;
18449;SDS011;9354;50.194;7.690;2023-05-07T01:56:40;6.97;;;3.07;;
18449;SDS011;9354;50.194;7.690;2023-05-07T01:59:09;6.13;;;2.40;;
18449;SDS011;9354;50.194;7.690;2023-05-07T02:01:39;4.03;;;2.57;;
18449;SDS011;9354;50.194;7.690;2023-05-07T02:04:06;3.30;;;2.60;;
18449;SDS011;9354;50.194;7.690;2023-05-07T02:06:33;4.70;;;2.60;;
18449;SDS011;9354;50.194;7.690;2023-05-07T02:09:01;6.47;;;2.80;;
18449;SDS011;9354;50.194;7.690;2023-05-07T02:11:28;4.93;;;2.60;;
18449;SDS011;9354;50.194;7.690;2023-05-07T02:13:56;3.90;;;2.83;;
18449;SDS011;9354;50.194;7.690;2023-05-07T02:16:24;4.27;;;2.80;;
18449;SDS011;9354;50.194;7.690;2023-05-07T02:18:52;5.33;;;2.90;;
18449;SDS011;9354;50.194;7.690;2023-05-07T02:21:19;6.63;;;2.73;;
18449;SDS011;9354;50.194;7.690;2023-05-07T02:23:47;5.60;;;2.80;;
18449;SDS011;9354;50.194;7.690;2023-05-07T02:26:14;7.63;;;2.73;;
18449;SDS011;9354;50.194;7.690;2023-05-07T02:28:41;4.17;;;2.40;;
18449;SDS011;9354;50.194;7.690;2023-05-07T02:31:09;4.77;;;2.50;;
18449;SDS011;9354;50.194;7.690;2023-05-07T02:33:37;4.10;;;2.83;;
18449;SDS011;9354;50.194;7.690;2023-05-07T02:36:05;7.13;;;2.80;;
18449;SDS011;9354;50.194;7.690;2023-05-07T02:38:33;4.23;;;2.50;;
18449;SDS011;9354;50.194;7.690;2023-05-07T02:41:01;4.23;;;2.57;;
18449;SDS011;9354;50.194;7.690;2023-05-07T02:43:28;3.70;;;2.40;;
18449;SDS011;9354;50.194;7.690;2023-05-07T02:46:02;5.07;;;2.50;;
18449;SDS011;9354;50.194;7.690;2023-05-07T02:48:30;5.00;;;2.53;;
18449;SDS011;9354;50.194;7.690;2023-05-07T02:51:00;3.77;;;2.60;;
18449;SDS011;9354;50.194;7.690;2023-05-07T02:53:28;3.80;;;2.43;;
18449;SDS011;9354;50.194;7.690;2023-05-07T02:55:55;4.47;;;2.40;;
18449;SDS011;9354;50.194;7.690;2023-05-07T02:58:24;6.50;;;2.60;;
18449;SDS011;9354;50.194;7.690;2023-05-07T03:00:51;3.87;;;2.83;;
18449;SDS011;9354;50.194;7.690;2023-05-07T03:03:20;5.23;;;2.60;;
18449;SDS011;9354;50.194;7.690;2023-05-07T03:05:47;4.83;;;2.40;;
18449;SDS011;9354;50.194;7.690;2023-05-07T03:08:16;5.73;;;2.70;;
18449;SDS011;9354;50.194;7.690;2023-05-07T03:10:44;6.47;;;2.60;;
18449;SDS011;9354;50.194;7.690;2023-05-07T03:13:11;4.60;;;2.50;;
18449;SDS011;9354;50.194;7.690;2023-05-07T03:15:38;4.80;;;2.60;;
18449;SDS011;9354;50.194;7.690;2023-05-07T03:18:06;3.33;;;2.57;;
18449;SDS011;9354;50.194;7.690;2023-05-07T03:20:33;4.13;;;2.53;;
18449;SDS011;9354;50.194;7.690;2023-05-07T03:23:01;6.43;;;2.60;;
18449;SDS011;9354;50.194;7.690;2023-05-07T03:25:31;3.93;;;2.63;;
18449;SDS011;9354;50.194;7.690;2023-05-07T03:27:59;4.30;;;2.53;;
18449;SDS011;9354;50.194;7.690;2023-05-07T03:30:26;4.17;;;2.83;;
18449;SDS011;9354;50.194;7.690;2023-05-07T03:32:53;4.33;;;2.50;;
18449;SDS011;9354;50.194;7.690;2023-05-07T03:35:21;3.70;;;2.57;;
18449;SDS011;9354;50.194;7.690;2023-05-07T03:37:48;3.60;;;2.70;;
18449;SDS011;9354;50.194;7.690;2023-05-07T03:40:16;5.43;;;2.80;;
18449;SDS011;9354;50.194;7.690;2023-05-07T03:42:45;4.60;;;2.43;;
18449;SDS011;9354;50.194;7.690;2023-05-07T03:45:12;8.80;;;3.47;;
18449;SDS011;9354;50.194;7.690;2023-05-07T03:47:39;7.70;;;2.90;;
18449;SDS011;9354;50.194;7.690;2023-05-07T03:50:07;4.40;;;2.63;;
18449;SDS011;9354;50.194;7.690;2023-05-07T03:52:35;4.53;;;2.83;;
18449;SDS011;9354;50.194;7.690;2023-05-07T03:55:03;5.47;;;2.93;;
18449;SDS011;9354;50.194;7.690;2023-05-07T03:57:31;4.60;;;3.20;;
18449;SDS011;9354;50.194;7.690;2023-05-07T04:00:00;5.67;;;3.03;;
18449;SDS011;9354;50.194;7.690;2023-05-07T04:02:27;4.93;;;2.80;;
18449;SDS011;9354;50.194;7.690;2023-05-07T04:04:55;4.70;;;2.87;;
18449;SDS011;9354;50.194;7.690;2023-05-07T04:07:22;5.67;;;3.00;;
18449;SDS011;9354;50.194;7.690;2023-05-07T04:09:49;5.70;;;2.80;;
18449;SDS011;9354;50.194;7.690;2023-05-07T04:12:17;6.70;;;2.50;;
18449;SDS011;9354;50.194;7.690;2023-05-07T04:14:44;6.80;;;2.70;;
18449;SDS011;9354;50.194;7.690;2023-05-07T04:17:13;5.03;;;3.00;;
18449;SDS011;9354;50.194;7.690;2023-05-07T04:19:40;5.43;;;2.60;;
18449;SDS011;9354;50.194;7.690;2023-05-07T04:22:10;7.13;;;2.80;;
18449;SDS011;9354;50.194;7.690;2023-05-07T04:24:38;5.37;;;2.87;;
18449;SDS011;9354;50.194;7.690;2023-05-07T04:27:05;3.87;;;2.33;;
18449;SDS011;9354;50.194;7.690;2023-05-07T04:29:33;3.93;;;2.60;;
18449;SDS011;9354;50.194;7.690;2023-05-07T04:32:00;3.63;;;2.77;;
18449;SDS011;9354;50.194;7.690;2023-05-07T04:34:29;3.53;;;2.63;;
18449;SDS011;9354;50.194;7.690;2023-05-07T04:36:58;4.33;;;3.00;;
18449;SDS011;9354;50.194;7.690;2023-05-07T04:39:26;4.43;;;2.83;;
18449;SDS011;9354;50.194;7.690;2023-05-07T04:41:53;9.77;;;2.77;;
18449;SDS011;9354;50.194;7.690;2023-05-07T04:44:21;4.83;;;2.87;;
18449;SDS011;9354;50.194;7.690;2023-05-07T04:46:48;3.73;;;2.80;;
18449;SDS011;9354;50.194;7.690;2023-05-07T04:49:16;2.90;;;2.33;;
18449;SDS011;9354;50.194;7.690;2023-05-07T04:51:44;5.33;;;3.20;;
18449;SDS011;9354;50.194;7.690;2023-05-07T04:54:12;3.43;;;2.60;;
18449;SDS011;9354;50.194;7.690;2023-05-07T04:56:39;3.50;;;2.70;;
18449;SDS011;9354;50.194;7.690;2023-05-07T04:59:07;8.03;;;2.90;;
18449;SDS011;9354;50.194;7.690;2023-05-07T05:01:34;4.53;;;2.57;;
18449;SDS011;9354;50.194;7.690;2023-05-07T05:04:01;4.33;;;2.80;;
18449;SDS011;9354;50.194;7.690;2023-05-07T05:06:29;8.23;;;2.80;;
18449;SDS011;9354;50.194;7.690;2023-05-07T05:08:57;3.47;;;2.17;;
18449;SDS011;9354;50.194;7.690;2023-05-07T05:11:25;5.43;;;2.70;;
18449;SDS011;9354;50.194;7.690;2023-05-07T05:13:52;4.30;;;2.87;;
18449;SDS011;9354;50.194;7.690;2023-05-07T05:16:20;9.20;;;2.70;;
18449;SDS011;9354;50.194;7.690;2023-05-07T05:18:47;7.90;;;4.60;;
18449;SDS011;9354;50.194;7.690;2023-05-07T05:21:14;18.93;;;13.27;;
18449;SDS011;9354;50.194;7.690;2023-05-07T05:23:42;8.50;;;5.17;;
18449;SDS011;9354;50.194;7.690;2023-05-07T05:26:11;6.63;;;3.07;;
18449;SDS011;9354;50.194;7.690;2023-05-07T05:28:38;3.73;;;2.53;;
18449;SDS011;9354;50.194;7.690;2023-05-07T05:31:05;4.13;;;2.63;;
18449;SDS011;9354;50.194;7.690;2023-05-07T05:33:33;3.50;;;2.73;;
18449;SDS011;9354;50.194;7.690;2023-05-07T05:36:00;7.63;;;3.20;;
18449;SDS011;9354;50.194;7.690;2023-05-07T05:38:27;5.10;;;2.73;;
18449;SDS011;9354;50.194;7.690;2023-05-07T05:40:55;5.57;;;2.80;;
18449;SDS011;9354;50.194;7.690;2023-05-07T05:43:24;5.00;;;2.60;;
18449;SDS011;9354;50.194;7.690;2023-05-07T05:45:51;4.63;;;2.97;;
18449;SDS011;9354;50.194;7.690;2023-05-07T05:48:19;6.03;;;3.00;;
18449;SDS011;9354;50.194;7.690;2023-05-07T05:50:46;3.97;;;2.47;;
18449;SDS011;9354;50.194;7.690;2023-05-07T05:53:13;7.10;;;2.83;;
18449;SDS011;9354;50.194;7.690;2023-05-07T05:55:41;3.70;;;2.70;;
18449;SDS011;9354;50.194;7.690;2023-05-07T05:58:09;3.80;;;2.77;;
18449;SDS011;9354;50.194;7.690;2023-05-07T06:00:38;3.67;;;2.47;;
18449;SDS011;9354;50.194;7.690;2023-05-07T06:03:05;4.63;;;2.60;;
18449;SDS011;9354;50.194;7.690;2023-05-07T06:05:32;7.20;;;2.70;;
18449;SDS011;9354;50.194;7.690;2023-05-07T06:08:00;4.17;;;2.57;;
18449;SDS011;9354;50.194;7.690;2023-05-07T06:10:27;3.83;;;2.63;;
18449;SDS011;9354;50.194;7.690;2023-05-07T06:12:55;4.13;;;2.50;;
18449;SDS011;9354;50.194;7.690;2023-05-07T06:15:23;5.83;;;3.30;;
18449;SDS011;9354;50.194;7.690;2023-05-07T06:17:52;4.33;;;2.57;;
18449;SDS011;9354;50.194;7.690;2023-05-07T06:20:21;3.20;;;2.53;;
18449;SDS011;9354;50.194;7.690;2023-05-07T06:22:48;4.33;;;3.00;;
18449;SDS011;9354;50.194;7.690;2023-05-07T06:25:17;3.73;;;2.53;;
18449;SDS011;9354;50.194;7.690;2023-05-07T06:27:44;6.00;;;2.80;;
18449;SDS011;9354;50.194;7.690;2023-05-07T06:30:12;4.57;;;2.73;;
18449;SDS011;9354;50.194;7.690;2023-05-07T06:32:40;5.07;;;2.80;;
18449;SDS011;9354;50.194;7.690;2023-05-07T06:35:09;5.53;;;3.00;;
18449;SDS011;9354;50.194;7.690;2023-05-07T06:37:36;3.90;;;2.40;;
18449;SDS011;9354;50.194;7.690;2023-05-07T06:40:05;5.93;;;2.97;;
18449;SDS011;9354;50.194;7.690;2023-05-07T06:42:33;4.70;;;2.37;;
18449;SDS011;9354;50.194;7.690;2023-05-07T06:45:02;5.13;;;3.07;;
18449;SDS011;9354;50.194;7.690;2023-05-07T06:47:29;4.97;;;3.20;;
18449;SDS011;9354;50.194;7.690;2023-05-07T06:49:57;5.17;;;2.60;;
18449;SDS011;9354;50.194;7.690;2023-05-07T06:52:25;5.37;;;2.53;;
18449;SDS011;9354;50.194;7.690;2023-05-07T06:54:53;3.67;;;2.50;;
18449;SDS011;9354;50.194;7.690;2023-05-07T06:57:20;4.17;;;2.50;;
18449;SDS011;9354;50.194;7.690;2023-05-07T06:59:47;5.60;;;2.40;;
18449;SDS011;9354;50.194;7.690;2023-05-07T07:02:15;2.80;;;2.17;;
18449;SDS011;9354;50.194;7.690;2023-05-07T07:04:42;6.07;;;2.33;;
18449;SDS011;9354;50.194;7.690;2023-05-07T07:07:10;3.23;;;2.43;;
18449;SDS011;9354;50.194;7.690;2023-05-07T07:09:39;5.17;;;2.57;;
18449;SDS011;9354;50.194;7.690;2023-05-07T07:12:06;3.87;;;2.40;;
18449;SDS011;9354;50.194;7.690;2023-05-07T07:14:34;3.83;;;2.10;;
18449;SDS011;9354;50.194;7.690;2023-05-07T07:17:01;3.13;;;2.50;;
18449;SDS011;9354;50.194;7.690;2023-05-07T07:19:30;7.30;;;2.33;;
18449;SDS011;9354;50.194;7.690;2023-05-07T07:21:58;4.23;;;2.17;;
18449;SDS011;9354;50.194;7.690;2023-05-07T07:24:25;3.37;;;1.90;;
18449;SDS011;9354;50.194;7.690;2023-05-07T07:26:54;2.60;;;2.07;;
18449;SDS011;9354;50.194;7.690;2023-05-07T07:29:22;3.50;;;2.33;;
18449;SDS011;9354;50.194;7.690;2023-05-07T07:31:52;3.77;;;2.47;;
18449;SDS011;9354;50.194;7.690;2023-05-07T07:34:19;5.50;;;2.63;;
18449;SDS011;9354;50.194;7.690;2023-05-07T07:36:46;3.50;;;2.23;;
18449;SDS011;9354;50.194;7.690;2023-05-07T07:39:14;6.67;;;2.40;;
18449;SDS011;9354;50.194;7.690;2023-05-07T07:41:41;5.87;;;2.63;;
18449;SDS011;9354;50.194;7.690;2023-05-07T07:44:10;3.60;;;2.30;;
18449;SDS011;9354;50.194;7.690;2023-05-07T07:46:38;6.97;;;2.57;;
18449;SDS011;9354;50.194;7.690;2023-05-07T07:49:05;4.97;;;2.50;;
18449;SDS011;9354;50.194;7.690;2023-05-07T07:51:33;4.83;;;2.60;;
18449;SDS011;9354;50.194;7.690;2023-05-07T07:54:00;2.57;;;2.10;;
18449;SDS011;9354;50.194;7.690;2023-05-07T07:56:29;2.80;;;2.20;;
18449;SDS011;9354;50.194;7.690;2023-05-07T07:58:56;3.63;;;2.27;;
18449;SDS011;9354;50.194;7.690;2023-05-07T08:01:25;5.30;;;2.07;;
18449;SDS011;9354;50.194;7.690;2023-05-07T08:03:52;5.93;;;3.00;;
18449;SDS011;9354;50.194;7.690;2023-05-07T08:06:19;3.40;;;1.97;;
18449;SDS011;9354;50.194;7.690;2023-05-07T08:08:47;4.40;;;2.60;;
18449;SDS011;9354;50.194;7.690;2023-05-07T08:11:15;4.00;;;2.20;;
18449;SDS011;9354;50.194;7.690;2023-05-07T08:13:42;3.97;;;2.50;;
18449;SDS011;9354;50.194;7.690;2023-05-07T08:16:10;2.90;;;2.00;;
18449;SDS011;9354;50.194;7.690;2023-05-07T08:18:39;3.87;;;2.27;;
18449;SDS011;9354;50.194;7.690;2023-05-07T08:21:06;2.83;;;1.80;;
18449;SDS011;9354;50.194;7.690;2023-05-07T08:23:34;4.50;;;2.30;;
18449;SDS011;9354;50.194;7.690;2023-05-07T08:26:01;3.00;;;2.07;;
18449;SDS011;9354;50.194;7.690;2023-05-07T08:28:29;7.07;;;2.50;;
18449;SDS011;9354;50.194;7.690;2023-05-07T08:30:56;2.93;;;1.60;;
18449;SDS011;9354;50.194;7.690;2023-05-07T08:33:26;1.90;;;1.67;;
18449;SDS011;9354;50.194;7.690;2023-05-07T08:35:54;2.70;;;2.00;;
18449;SDS011;9354;50.194;7.690;2023-05-07T08:38:22;3.63;;;1.77;;
18449;SDS011;9354;50.194;7.690;2023-05-07T08:40:49;8.10;;;2.10;;
18449;SDS011;9354;50.194;7.690;2023-05-07T08:43:17;5.47;;;1.80;;
18449;SDS011;9354;50.194;7.690;2023-05-07T08:45:46;2.47;;;1.73;;
18449;SDS011;9354;50.194;7.690;2023-05-07T08:48:21;5.07;;;1.97;;
18449;SDS011;9354;50.194;7.690;2023-05-07T08:50:51;4.23;;;2.23;;
18449;SDS011;9354;50.194;7.690;2023-05-07T08:53:20;4.00;;;1.97;;
18449;SDS011;9354;50.194;7.690;2023-05-07T08:55:48;4.67;;;2.10;;
18449;SDS011;9354;50.194;7.690;2023-05-07T08:58:16;5.13;;;1.83;;
18449;SDS011;9354;50.194;7.690;2023-05-07T09:00:43;5.40;;;1.90;;
18449;SDS011;9354;50.194;7.690;2023-05-07T09:03:11;2.30;;;1.80;;
18449;SDS011;9354;50.194;7.690;2023-05-07T09:05:39;5.60;;;2.00;;
18449;SDS011;9354;50.194;7.690;2023-05-07T09:08:07;2.77;;;1.80;;
18449;SDS011;9354;50.194;7.690;2023-05-07T09:10:36;4.80;;;2.00;;
18449;SDS011;9354;50.194;7.690;2023-05-07T09:13:03;3.63;;;1.70;;
18449;SDS011;9354;50.194;7.690;2023-05-07T09:15:30;3.33;;;1.80;;
18449;SDS011;9354;50.194;7.690;2023-05-07T09:17:59;3.70;;;1.63;;
18449;SDS011;9354;50.194;7.690;2023-05-07T09:20:29;3.13;;;1.70;;
18449;SDS011;9354;50.194;7.690;2023-05-07T09:22:57;4.07;;;2.07;;
18449;SDS011;9354;50.194;7.690;2023-05-07T09:25:28;3.13;;;1.90;;
18449;SDS011;9354;50.194;7.690;2023-05-07T09:27:57;2.20;;;1.43;;
18449;SDS011;9354;50.194;7.690;2023-05-07T09:30:27;2.93;;;1.90;;
18449;SDS011;9354;50.194;7.690;2023-05-07T09:32:55;4.77;;;1.50;;
18449;SDS011;9354;50.194;7.690;2023-05-07T09:35:24;3.23;;;1.70;;
18449;SDS011;9354;50.194;7.690;2023-05-07T09:37:52;4.77;;;1.90;;
18449;SDS011;9354;50.194;7.690;2023-05-07T09:40:21;3.03;;;1.70;;
18449;SDS011;9354;50.194;7.690;2023-05-07T09:42:49;2.23;;;1.67;;
18449;SDS011;9354;50.194;7.690;2023-05-07T09:45:22;2.20;;;1.50;;
18449;SDS011;9354;50.194;7.690;2023-05-07T09:47:53;2.10;;;1.80;;
18449;SDS011;9354;50.194;7.690;2023-05-07T09:50:25;3.20;;;1.50;;
18449;SDS011;9354;50.194;7.690;2023-05-07T09:52:54;5.73;;;1.77;;
18449;SDS011;9354;50.194;7.690;2023-05-07T09:55:22;3.10;;;2.00;;
18449;SDS011;9354;50.194;7.690;2023-05-07T09:57:50;4.13;;;2.00;;
18449;SDS011;9354;50.194;7.690;2023-05-07T10:00:19;2.20;;;1.63;;
18449;SDS011;9354;50.194;7.690;2023-05-07T10:02:49;2.70;;;1.50;;
18449;SDS011;9354;50.194;7.690;2023-05-07T10:05:18;3.73;;;1.50;;
18449;SDS011;9354;50.194;7.690;2023-05-07T10:07:46;3.50;;;1.40;;
18449;SDS011;9354;50.194;7.690;2023-05-07T10:10:14;3.40;;;1.63;;
18449;SDS011;9354;50.194;7.690;2023-05-07T10:12:42;2.53;;;1.67;;
18449;SDS011;9354;50.194;7.690;2023-05-07T10:15:10;3.70;;;1.43;;
18449;SDS011;9354;50.194;7.690;2023-05-07T10:17:41;2.00;;;1.30;;
18449;SDS011;9354;50.194;7.690;2023-05-07T10:20:08;2.90;;;1.50;;
18449;SDS011;9354;50.194;7.690;2023-05-07T10:22:37;2.57;;;1.53;;
18449;SDS011;9354;50.194;7.690;2023-05-07T10:25:06;3.87;;;1.80;;
18449;SDS011;9354;50.194;7.690;2023-05-07T10:27:40;5.47;;;1.57;;
18449;SDS011;9354;50.194;7.690;2023-05-07T10:30:12;2.10;;;1.60;;
18449;SDS011;9354;50.194;7.690;2023-05-07T10:32:51;4.33;;;1.60;;
18449;SDS011;9354;50.194;7.690;2023-05-07T10:35:25;5.63;;;1.57;;
18449;SDS011;9354;50.194;7.690;2023-05-07T10:37:57;2.43;;;1.70;;
18449;SDS011;9354;50.194;7.690;2023-05-07T10:40:24;3.03;;;1.60;;
18449;SDS011;9354;50.194;7.690;2023-05-07T10:42:55;3.47;;;1.70;;
18449;SDS011;9354;50.194;7.690;2023-05-07T10:45:23;3.40;;;1.77;;
18449;SDS011;9354;50.194;7.690;2023-05-07T10:48:08;2.73;;;1.40;;
18449;SDS011;9354;50.194;7.690;2023-05-07T10:50:37;9.93;;;1.73;;
18449;SDS011;9354;50.194;7.690;2023-05-07T10:53:24;8.10;;;1.37;;
18449;SDS011;9354;50.194;7.690;2023-05-07T10:58:55;3.90;;;1.43;;
18449;SDS011;9354;50.194;7.690;2023-05-07T11:01:49;3.80;;;1.40;;
18449;SDS011;9354;50.194;7.690;2023-05-07T11:04:19;3.67;;;1.30;;
18449;SDS011;9354;50.194;7.690;2023-05-07T11:09:58;2.57;;;1.20;;
18449;SDS011;9354;50.194;7.690;2023-05-07T11:12:51;1.90;;;1.27;;
18449;SDS011;9354;50.194;7.690;2023-05-07T11:18:07;2.47;;;1.20;;
18449;SDS011;9354;50.194;7.690;2023-05-07T11:20:55;2.43;;;1.50;;
18449;SDS011;9354;50.194;7.690;2023-05-07T11:26:42;2.20;;;1.30;;
18449;SDS011;9354;50.194;7.690;2023-05-07T11:29:12;2.10;;;1.40;;
18449;SDS011;9354;50.194;7.690;2023-05-07T11:31:40;1.30;;;1.10;;
18449;SDS011;9354;50.194;7.690;2023-05-07T11:34:08;1.43;;;1.10;;
18449;SDS011;9354;50.194;7.690;2023-05-07T11:36:40;2.90;;;1.13;;
18449;SDS011;9354;50.194;7.690;2023-05-07T11:39:25;3.83;;;1.20;;
18449;SDS011;9354;50.194;7.690;2023-05-07T11:41:53;1.90;;;1.00;;
18449;SDS011;9354;50.194;7.690;2023-05-07T11:44:21;2.70;;;1.30;;
18449;SDS011;9354;50.194;7.690;2023-05-07T11:46:49;1.53;;;1.30;;
18449;SDS011;9354;50.194;7.690;2023-05-07T11:49:16;1.37;;;1.07;;
18449;SDS011;9354;50.194;7.690;2023-05-07T11:51:46;2.13;;;1.40;;
18449;SDS011;9354;50.194;7.690;2023-05-07T11:54:15;3.70;;;1.57;;
18449;SDS011;9354;50.194;7.690;2023-05-07T11:56:44;2.63;;;1.40;;
18449;SDS011;9354;50.194;7.690;2023-05-07T11:59:16;4.60;;;1.70;;
18449;SDS011;9354;50.194;7.690;2023-05-07T12:01:45;2.70;;;1.33;;
18449;SDS011;9354;50.194;7.690;2023-05-07T12:04:13;3.27;;;1.40;;
18449;SDS011;9354;50.194;7.690;2023-05-07T12:06:47;2.30;;;1.50;;
18449;SDS011;9354;50.194;7.690;2023-05-07T12:09:16;5.07;;;1.30;;
18449;SDS011;9354;50.194;7.690;2023-05-07T12:11:45;1.80;;;1.20;;
18449;SDS011;9354;50.194;7.690;2023-05-07T12:14:13;3.83;;;1.67;;
18449;SDS011;9354;50.194;7.690;2023-05-07T12:16:41;2.07;;;1.20;;
18449;SDS011;9354;50.194;7.690;2023-05-07T12:19:10;2.63;;;1.37;;
18449;SDS011;9354;50.194;7.690;2023-05-07T12:21:38;2.67;;;1.80;;
18449;SDS011;9354;50.194;7.690;2023-05-07T12:24:09;1.53;;;1.07;;
18449;SDS011;9354;50.194;7.690;2023-05-07T12:26:37;2.93;;;1.33;;
18449;SDS011;9354;50.194;7.690;2023-05-07T12:29:06;2.37;;;1.30;;
18449;SDS011;9354;50.194;7.690;2023-05-07T12:31:33;2.23;;;1.40;;
18449;SDS011;9354;50.194;7.690;2023-05-07T12:34:02;1.20;;;1.03;;
18449;SDS011;9354;50.194;7.690;2023-05-07T12:36:36;1.53;;;1.10;;
18449;SDS011;9354;50.194;7.690;2023-05-07T12:39:04;2.63;;;1.43;;
18449;SDS011;9354;50.194;7.690;2023-05-07T12:41:43;5.87;;;1.20;;
18449;SDS011;9354;50.194;7.690;2023-05-07T12:44:21;2.03;;;1.10;;
18449;SDS011;9354;50.194;7.690;2023-05-07T12:46:50;1.70;;;1.07;;
18449;SDS011;9354;50.194;7.690;2023-05-07T12:49:18;1.77;;;0.90;;
18449;SDS011;9354;50.194;7.690;2023-05-07T12:51:46;2.40;;;1.10;;
18449;SDS011;9354;50.194;7.690;2023-05-07T12:54:27;1.90;;;1.10;;
18449;SDS011;9354;50.194;7.690;2023-05-07T12:57:01;1.20;;;1.00;;
18449;SDS011;9354;50.194;7.690;2023-05-07T12:59:32;1.63;;;1.10;;
18449;SDS011;9354;50.194;7.690;2023-05-07T13:02:01;3.07;;;1.83;;
18449;SDS011;9354;50.194;7.690;2023-05-07T13:04:28;2.40;;;1.17;;
18449;SDS011;9354;50.194;7.690;2023-05-07T13:06:55;1.27;;;1.10;;
18449;SDS011;9354;50.194;7.690;2023-05-07T13:09:23;2.60;;;1.03;;
18449;SDS011;9354;50.194;7.690;2023-05-07T13:11:50;1.37;;;0.97;;
18449;SDS011;9354;50.194;7.690;2023-05-07T13:14:19;5.30;;;1.10;;
18449;SDS011;9354;50.194;7.690;2023-05-07T13:16:47;1.63;;;1.10;;
18449;SDS011;9354;50.194;7.690;2023-05-07T13:19:14;2.70;;;1.30;;
18449;SDS011;9354;50.194;7.690;2023-05-07T13:21:42;2.50;;;1.37;;
18449;SDS011;9354;50.194;7.690;2023-05-07T13:24:10;2.37;;;1.30;;
18449;SDS011;9354;50.194;7.690;2023-05-07T13:26:37;1.93;;;1.20;;
18449;SDS011;9354;50.194;7.690;2023-05-07T13:29:05;1.43;;;1.20;;
18449;SDS011;9354;50.194;7.690;2023-05-07T13:31:33;3.97;;;1.10;;
18449;SDS011;9354;50.194;7.690;2023-05-07T13:34:01;4.77;;;1.40;;
18449;SDS011;9354;50.194;7.690;2023-05-07T13:36:28;1.30;;;1.00;;
18449;SDS011;9354;50.194;7.690;2023-05-07T13:38:58;2.43;;;1.20;;
18449;SDS011;9354;50.194;7.690;2023-05-07T13:41:26;5.00;;;1.07;;
18449;SDS011;9354;50.194;7.690;2023-05-07T13:43:53;2.80;;;1.30;;
18449;SDS011;9354;50.194;7.690;2023-05-07T13:46:21;1.63;;;1.20;;
18449;SDS011;9354;50.194;7.690;2023-05-07T13:48:50;2.30;;;1.37;;
18449;SDS011;9354;50.194;7.690;2023-05-07T13:51:17;1.93;;;1.30;;
18449;SDS011;9354;50.194;7.690;2023-05-07T13:53:44;1.63;;;1.00;;
18449;SDS011;9354;50.194;7.690;2023-05-07T13:56:12;2.03;;;1.10;;
18449;SDS011;9354;50.194;7.690;2023-05-07T13:58:39;1.60;;;1.07;;
18449;SDS011;9354;50.194;7.690;2023-05-07T14:01:07;1.93;;;1.20;;
18449;SDS011;9354;50.194;7.690;2023-05-07T14:03:34;3.47;;;1.17;;
18449;SDS011;9354;50.194;7.690;2023-05-07T14:06:04;1.50;;;1.40;;
18449;SDS011;9354;50.194;7.690;2023-05-07T14:08:32;1.57;;;1.20;;
18449;SDS011;9354;50.194;7.690;2023-05-07T14:10:59;1.60;;;1.20;;
18449;SDS011;9354;50.194;7.690;2023-05-07T14:13:26;3.13;;;1.60;;
18449;SDS011;9354;50.194;7.690;2023-05-07T14:15:56;2.77;;;1.50;;
18449;SDS011;9354;50.194;7.690;2023-05-07T14:18:23;2.70;;;1.47;;
18449;SDS011;9354;50.194;7.690;2023-05-07T14:20:51;2.27;;;1.20;;
18449;SDS011;9354;50.194;7.690;2023-05-07T14:23:20;2.70;;;1.20;;
18449;SDS011;9354;50.194;7.690;2023-05-07T14:25:51;2.47;;;1.27;;
18449;SDS011;9354;50.194;7.690;2023-05-07T14:28:19;2.53;;;1.33;;
18449;SDS011;9354;50.194;7.690;2023-05-07T14:30:47;1.97;;;1.40;;
18449;SDS011;9354;50.194;7.690;2023-05-07T14:33:14;2.70;;;1.27;;
18449;SDS011;9354;50.194;7.690;2023-05-07T14:35:41;11.93;;;1.57;;
18449;SDS011;9354;50.194;7.690;2023-05-07T14:38:13;3.43;;;1.27;;
18449;SDS011;9354;50.194;7.690;2023-05-07T14:40:42;3.17;;;1.40;;
18449;SDS011;9354;50.194;7.690;2023-05-07T14:43:09;1.83;;;1.27;;
18449;SDS011;9354;50.194;7.690;2023-05-07T14:45:37;2.20;;;1.20;;
18449;SDS011;9354;50.194;7.690;2023-05-07T14:48:04;3.37;;;1.50;;
18449;SDS011;9354;50.194;7.690;2023-05-07T14:50:31;2.50;;;1.40;;
18449;SDS011;9354;50.194;7.690;2023-05-07T14:52:59;2.30;;;1.40;;
18449;SDS011;9354;50.194;7.690;2023-05-07T14:55:26;3.03;;;1.47;;
18449;SDS011;9354;50.194;7.690;2023-05-07T14:57:55;4.87;;;1.70;;
18449;SDS011;9354;50.194;7.690;2023-05-07T15:00:22;2.77;;;1.30;;
18449;SDS011;9354;50.194;7.690;2023-05-07T15:02:50;2.90;;;1.30;;
18449;SDS011;9354;50.194;7.690;2023-05-07T15:05:17;2.83;;;1.30;;
18449;SDS011;9354;50.194;7.690;2023-05-07T15:07:45;1.50;;;1.30;;
18449;SDS011;9354;50.194;7.690;2023-05-07T15:10:12;2.23;;;1.30;;
18449;SDS011;9354;50.194;7.690;2023-05-07T15:12:40;2.27;;;1.33;;
18449;SDS011;9354;50.194;7.690;2023-05-07T15:15:09;2.00;;;1.40;;
18449;SDS011;9354;50.194;7.690;2023-05-07T15:17:37;1.70;;;1.30;;
18449;SDS011;9354;50.194;7.690;2023-05-07T15:20:05;2.57;;;1.40;;